Date,TemperatureHighF,TemperatureAvgF,TemperatureLowF,DewpointHighF,DewpointAvgF,DewpointLowF,HumidityHigh,HumidityAvg,HumidityLow,PressureMaxIn,PressureMinIn,WindSpeedMaxMPH,WindSpeedAvgMPH,GustSpeedMaxMPH,PrecipitationSumIn
2013-2-1,70.3,56.5,46.9,49.1,37.8,29.5,85,52,27,28.23,28.06,14,3,30,0.00
2013-2-2,67.7,58.3,48.9,57.2,51.4,45.5,91,79,49,28.06,27.86,14,4,28,0.02
2013-2-3,61.9,60.9,60.1,56.8,55.5,46.7,89,83,60,28.26,27.92,20,8,37,0.01
2013-2-4,70.0,63.1,59.5,59.4,56.3,53.7,90,79,62,28.11,28.03,9,4,23,0.00
2013-2-5,68.9,60.3,54.6,56.9,51.7,43.9,90,74,53,28.11,27.96,8,3,20,0.00
2013-2-6,67.5,57.5,49.8,55.4,50.4,43.8,89,78,64,27.96,27.80,10,2,15,0.00
2013-2-7,65.0,59.1,52.7,54.0,50.7,46.3,92,74,60,27.85,27.67,28,11,46,0.21
2013-2-8,63.0,56.9,53.9,49.1,44.5,38.0,74,63,50,27.88,27.67,14,6,31,0.00
2013-2-9,64.6,57.5,49.1,45.8,42.4,38.1,77,58,44,28.01,27.88,10,4,20,0.00
2013-2-10,68.8,57.3,50.1,46.5,42.9,39.6,78,60,38,28.02,27.93,7,2,15,0.00
2013-2-11,60.6,54.0,49.3,45.4,38.3,32.3,82,57,36,28.19,27.91,15,6,30,0.01
2013-2-12,63.6,55.4,45.8,49.0,42.4,33.4,71,62,46,28.22,28.15,10,4,17,0.00
2013-2-13,61.2,56.4,52.0,50.4,47.4,44.2,92,72,61,28.15,28.03,15,8,33,0.27
2013-2-14,57.9,52.2,49.5,49.3,47.0,42.5,93,83,57,28.05,27.83,12,3,30,0.31
2013-2-15,57.4,51.5,47.5,48.8,45.5,41.3,90,80,68,28.18,27.82,8,3,20,0.07
2013-2-16,60.8,52.2,44.8,51.9,45.1,40.5,88,77,59,28.22,28.07,9,2,20,0.07
2013-2-17,51.3,49.1,47.7,47.7,43.8,40.8,95,82,71,28.19,28.05,13,4,21,0.39
2013-2-18,64.9,52.6,43.3,44.3,39.2,35.9,81,62,38,28.23,28.18,9,2,15,0.00
2013-2-19,63.7,53.3,46.8,53.9,46.5,39.8,95,78,59,28.20,27.91,9,3,18,0.08
2013-2-20,66.7,55.9,47.8,46.9,39.8,34.2,80,57,31,28.21,27.97,13,3,23,0.00
2013-2-21,60.7,54.8,49.5,54.3,45.2,41.7,84,70,58,28.20,27.85,9,3,29,0.01
2013-2-22,64.0,58.4,53.1,59.0,53.6,50.3,94,84,76,27.86,27.70,15,5,30,0.26
2013-2-23,71.2,59.8,50.9,60.4,53.6,49.2,98,82,52,28.12,27.86,7,2,13,0.00
2013-2-24,70.5,61.9,55.4,60.8,56.0,52.5,99,82,56,28.22,28.12,9,4,17,0.00
2013-2-25,69.4,63.5,60.3,58.6,56.1,53.0,92,77,64,28.19,28.08,14,8,30,0.00
2013-2-26,73.2,63.1,55.9,59.9,54.1,46.4,93,73,49,28.16,28.08,10,3,23,0.00
2013-2-27,65.5,57.4,49.3,49.4,44.4,40.2,80,63,42,28.18,28.06,9,3,22,0.00
2013-2-28,60.8,53.3,48.1,43.7,41.2,37.5,75,64,50,28.35,28.17,12,4,21,0.00